Fort Smith, AR

12:46 PM CST on February 11, 2016 (GMT -0600)
Riley Farms | | Change Station
CLOSE
Current Station
Personal Weather Station
Location: Fort Smith, AR
Elevation: 584 ft
Nearby Weather Stations

Elev 584 ft 35.28 °N, 94.37 °W | Updated 1 minute ago

Clear
Clear
58.7 °F
Feels Like 58.7 °F
N
0.0
Wind Variable Wind from North

Today
High -- | Low -- °F
--% Chance of Precip.
Yesterday
High -- | Low -- °F
Precip. -- in
Pressure 30.15 in
Visibility 10.0 miles
Clouds Clear
Dew Point 35 °F
Humidity 41%
Rainfall 0.00 in
Snow Depth Not available.
7:08 AM 5:55 PM
Waxing Crescent, 13% visible
METAR KFSM 111753Z VRB04KT 10SM CLR 13/M03 A3015 RMK AO2 SLP210 T01331028 10133 20006 51009
Pressure 30.15 in
Visibility 10.0 miles
Clouds Clear
Dew Point 35 °F
Humidity 41%
Rainfall 0.00 in
Snow Depth Not available.
7:08 AM 5:55 PM
Waxing Crescent, 13% visible
METAR KFSM 111753Z VRB04KT 10SM CLR 13/M03 A3015 RMK AO2 SLP210 T01331028 10133 20006 51009

10-Day Weather Forecast

Almanac

Astronomy

Feb. 11, 2016 Rise Set
Actual Time
Civil Twilight
Nautical Twilight
Astronomical Twilight
Moon
Length of Visible Light
Length of Day
Tomorrow will be .
, % of the Moon is Illuminated

Today's Extremes

State Highs State Lows

Community

WunderPhotos

Upload Photos

1,892,125 photos uploaded!

WunderBlog® & News

Nearby

Air Quality

  Air Quality AQ Index Pollutant
Not available.

Snow Depth

Station Depth Elevation

Earthquake Activity

City Distance Mag. Time & Date
Minimum magnitude displayed is 2.5.

Coastal Water Temperatures

Place Temperature

Stations

Nearby Weather Stations

Station Location Temp. Windchill Dew Point Humidity Wind Precip. Elev Updated Type
                   

Watches & Warnings

There are currently no watches in effect.